sensor_id;sensor_type;location;lat;lon;timestamp;temperature;humidity
11577;DHT22;5844;51.496;6.788;2022-07-23T00:00:11;16.80;99.90
11577;DHT22;5844;51.496;6.788;2022-07-23T00:02:36;16.90;99.90
11577;DHT22;5844;51.496;6.788;2022-07-23T00:05:03;16.90;99.90
11577;DHT22;5844;51.496;6.788;2022-07-23T00:07:29;18.10;99.90
11577;DHT22;5844;51.496;6.788;2022-07-23T00:09:54;16.90;99.90
11577;DHT22;5844;51.496;6.788;2022-07-23T00:12:20;16.90;99.90
11577;DHT22;5844;51.496;6.788;2022-07-23T00:14:46;16.90;99.90
11577;DHT22;5844;51.496;6.788;2022-07-23T00:17:11;16.90;99.90
11577;DHT22;5844;51.496;6.788;2022-07-23T00:19:37;16.90;99.90
11577;DHT22;5844;51.496;6.788;2022-07-23T00:22:03;16.90;99.90
11577;DHT22;5844;51.496;6.788;2022-07-23T00:24:28;16.90;99.90
11577;DHT22;5844;51.496;6.788;2022-07-23T00:26:54;16.90;99.90
11577;DHT22;5844;51.496;6.788;2022-07-23T00:29:20;16.90;99.90
11577;DHT22;5844;51.496;6.788;2022-07-23T00:31:45;16.80;99.90
11577;DHT22;5844;51.496;6.788;2022-07-23T00:34:11;16.80;99.90
11577;DHT22;5844;51.496;6.788;2022-07-23T00:36:37;16.70;99.90
11577;DHT22;5844;51.496;6.788;2022-07-23T00:39:03;16.60;99.90
11577;DHT22;5844;51.496;6.788;2022-07-23T00:41:29;16.60;99.90
11577;DHT22;5844;51.496;6.788;2022-07-23T00:43:55;16.60;99.90
11577;DHT22;5844;51.496;6.788;2022-07-23T00:46:21;16.50;99.90
11577;DHT22;5844;51.496;6.788;2022-07-23T00:48:47;16.50;99.90
11577;DHT22;5844;51.496;6.788;2022-07-23T00:51:14;16.40;99.90
11577;DHT22;5844;51.496;6.788;2022-07-23T00:53:40;16.40;99.90
11577;DHT22;5844;51.496;6.788;2022-07-23T00:56:06;16.40;99.90
11577;DHT22;5844;51.496;6.788;2022-07-23T00:58:35;16.40;99.90
11577;DHT22;5844;51.496;6.788;2022-07-23T01:01:01;16.30;99.90
11577;DHT22;5844;51.496;6.788;2022-07-23T01:03:26;16.20;99.90
11577;DHT22;5844;51.496;6.788;2022-07-23T01:05:53;16.20;99.90
11577;DHT22;5844;51.496;6.788;2022-07-23T01:08:19;16.20;99.90
11577;DHT22;5844;51.496;6.788;2022-07-23T01:10:46;16.20;99.90
11577;DHT22;5844;51.496;6.788;2022-07-23T01:13:12;16.10;99.90
11577;DHT22;5844;51.496;6.788;2022-07-23T01:15:38;16.10;99.90
11577;DHT22;5844;51.496;6.788;2022-07-23T01:18:05;16.10;99.90
11577;DHT22;5844;51.496;6.788;2022-07-23T01:20:32;16.10;99.90
11577;DHT22;5844;51.496;6.788;2022-07-23T01:22:58;16.20;99.90
11577;DHT22;5844;51.496;6.788;2022-07-23T01:25:24;16.10;99.90
11577;DHT22;5844;51.496;6.788;2022-07-23T01:27:52;16.20;99.90
11577;DHT22;5844;51.496;6.788;2022-07-23T01:30:18;16.20;99.90
11577;DHT22;5844;51.496;6.788;2022-07-23T01:32:43;16.20;99.90
11577;DHT22;5844;51.496;6.788;2022-07-23T01:35:09;16.20;99.90
11577;DHT22;5844;51.496;6.788;2022-07-23T01:37:38;16.10;99.90
11577;DHT22;5844;51.496;6.788;2022-07-23T01:40:04;16.20;99.90
11577;DHT22;5844;51.496;6.788;2022-07-23T01:42:30;16.20;99.90
11577;DHT22;5844;51.496;6.788;2022-07-23T01:44:56;16.20;99.90
11577;DHT22;5844;51.496;6.788;2022-07-23T01:47:22;16.10;99.90
11577;DHT22;5844;51.496;6.788;2022-07-23T01:49:47;16.10;99.90
11577;DHT22;5844;51.496;6.788;2022-07-23T01:52:13;16.10;99.90
11577;DHT22;5844;51.496;6.788;2022-07-23T01:54:39;16.10;99.90
11577;DHT22;5844;51.496;6.788;2022-07-23T01:57:05;16.00;99.90
11577;DHT22;5844;51.496;6.788;2022-07-23T01:59:32;15.90;99.90
11577;DHT22;5844;51.496;6.788;2022-07-23T02:01:58;15.90;99.90
11577;DHT22;5844;51.496;6.788;2022-07-23T02:04:24;15.80;99.90
11577;DHT22;5844;51.496;6.788;2022-07-23T02:06:51;15.80;99.90
11577;DHT22;5844;51.496;6.788;2022-07-23T02:09:17;15.70;99.90
11577;DHT22;5844;51.496;6.788;2022-07-23T02:11:43;15.70;99.90
11577;DHT22;5844;51.496;6.788;2022-07-23T02:14:08;15.60;99.90
11577;DHT22;5844;51.496;6.788;2022-07-23T02:16:34;15.60;99.90
11577;DHT22;5844;51.496;6.788;2022-07-23T02:19:00;15.50;99.90
11577;DHT22;5844;51.496;6.788;2022-07-23T02:21:26;15.50;99.90
11577;DHT22;5844;51.496;6.788;2022-07-23T02:23:51;15.50;99.90
11577;DHT22;5844;51.496;6.788;2022-07-23T02:26:17;15.50;99.90
11577;DHT22;5844;51.496;6.788;2022-07-23T02:28:43;15.50;99.90
11577;DHT22;5844;51.496;6.788;2022-07-23T02:31:08;15.50;99.90
11577;DHT22;5844;51.496;6.788;2022-07-23T02:33:34;15.50;99.90
11577;DHT22;5844;51.496;6.788;2022-07-23T02:35:59;15.60;99.90
11577;DHT22;5844;51.496;6.788;2022-07-23T02:38:26;15.60;99.90
11577;DHT22;5844;51.496;6.788;2022-07-23T02:40:52;15.60;99.90
11577;DHT22;5844;51.496;6.788;2022-07-23T02:43:17;15.70;99.90
11577;DHT22;5844;51.496;6.788;2022-07-23T02:45:43;15.70;99.90
11577;DHT22;5844;51.496;6.788;2022-07-23T02:48:09;15.80;99.90
11577;DHT22;5844;51.496;6.788;2022-07-23T02:50:38;15.70;99.90
11577;DHT22;5844;51.496;6.788;2022-07-23T02:53:04;15.60;99.90
11577;DHT22;5844;51.496;6.788;2022-07-23T02:55:30;15.60;99.90
11577;DHT22;5844;51.496;6.788;2022-07-23T02:57:56;15.50;99.90
11577;DHT22;5844;51.496;6.788;2022-07-23T03:00:23;15.40;99.90
11577;DHT22;5844;51.496;6.788;2022-07-23T03:02:49;15.40;99.90
11577;DHT22;5844;51.496;6.788;2022-07-23T03:05:14;15.30;99.90
11577;DHT22;5844;51.496;6.788;2022-07-23T03:07:41;15.30;99.90
11577;DHT22;5844;51.496;6.788;2022-07-23T03:10:07;15.20;99.90
11577;DHT22;5844;51.496;6.788;2022-07-23T03:12:33;15.20;99.90
11577;DHT22;5844;51.496;6.788;2022-07-23T03:14:59;15.20;99.90
11577;DHT22;5844;51.496;6.788;2022-07-23T03:17:24;15.10;99.90
11577;DHT22;5844;51.496;6.788;2022-07-23T03:19:50;15.10;99.90
11577;DHT22;5844;51.496;6.788;2022-07-23T03:22:16;15.10;99.90
11577;DHT22;5844;51.496;6.788;2022-07-23T03:24:41;15.00;99.90
11577;DHT22;5844;51.496;6.788;2022-07-23T03:27:19;15.00;99.90
11577;DHT22;5844;51.496;6.788;2022-07-23T03:29:45;15.00;99.90
11577;DHT22;5844;51.496;6.788;2022-07-23T03:32:10;14.90;99.90
11577;DHT22;5844;51.496;6.788;2022-07-23T03:34:37;14.90;99.90
11577;DHT22;5844;51.496;6.788;2022-07-23T03:37:03;14.90;99.90
11577;DHT22;5844;51.496;6.788;2022-07-23T03:39:29;14.80;99.90
11577;DHT22;5844;51.496;6.788;2022-07-23T03:41:54;14.80;99.90
11577;DHT22;5844;51.496;6.788;2022-07-23T03:44:20;14.80;99.90
11577;DHT22;5844;51.496;6.788;2022-07-23T03:46:46;14.80;99.90
11577;DHT22;5844;51.496;6.788;2022-07-23T03:49:11;14.80;99.90
11577;DHT22;5844;51.496;6.788;2022-07-23T03:51:37;13.20;99.90
11577;DHT22;5844;51.496;6.788;2022-07-23T03:54:03;14.70;99.90
11577;DHT22;5844;51.496;6.788;2022-07-23T03:56:28;14.70;99.90
11577;DHT22;5844;51.496;6.788;2022-07-23T03:58:54;14.70;99.90
11577;DHT22;5844;51.496;6.788;2022-07-23T04:01:20;14.70;99.90
11577;DHT22;5844;51.496;6.788;2022-07-23T04:03:45;14.70;99.90
11577;DHT22;5844;51.496;6.788;2022-07-23T04:06:12;14.70;99.90
11577;DHT22;5844;51.496;6.788;2022-07-23T04:08:37;14.70;99.90
11577;DHT22;5844;51.496;6.788;2022-07-23T04:11:03;14.60;99.90
11577;DHT22;5844;51.496;6.788;2022-07-23T04:13:29;14.60;99.90
11577;DHT22;5844;51.496;6.788;2022-07-23T04:15:55;14.60;99.90
11577;DHT22;5844;51.496;6.788;2022-07-23T04:18:20;14.60;99.90
11577;DHT22;5844;51.496;6.788;2022-07-23T04:20:50;14.60;99.90
11577;DHT22;5844;51.496;6.788;2022-07-23T04:23:16;14.70;99.90
11577;DHT22;5844;51.496;6.788;2022-07-23T04:25:42;14.60;99.90
11577;DHT22;5844;51.496;6.788;2022-07-23T04:28:08;14.70;99.90
11577;DHT22;5844;51.496;6.788;2022-07-23T04:30:33;14.70;99.90
11577;DHT22;5844;51.496;6.788;2022-07-23T04:32:59;14.60;99.90
11577;DHT22;5844;51.496;6.788;2022-07-23T04:35:25;14.60;99.90
11577;DHT22;5844;51.496;6.788;2022-07-23T04:37:50;14.60;99.90
11577;DHT22;5844;51.496;6.788;2022-07-23T04:40:16;14.70;99.90
11577;DHT22;5844;51.496;6.788;2022-07-23T04:42:42;14.70;99.90
11577;DHT22;5844;51.496;6.788;2022-07-23T04:45:08;14.70;99.90
11577;DHT22;5844;51.496;6.788;2022-07-23T04:47:34;14.70;99.90
11577;DHT22;5844;51.496;6.788;2022-07-23T04:50:00;14.70;99.90
11577;DHT22;5844;51.496;6.788;2022-07-23T04:52:26;14.70;99.90
11577;DHT22;5844;51.496;6.788;2022-07-23T04:54:51;14.80;99.90
11577;DHT22;5844;51.496;6.788;2022-07-23T04:57:17;14.80;99.90
11577;DHT22;5844;51.496;6.788;2022-07-23T04:59:43;14.90;99.90
11577;DHT22;5844;51.496;6.788;2022-07-23T05:02:08;14.90;99.90
11577;DHT22;5844;51.496;6.788;2022-07-23T05:04:34;14.90;99.90
11577;DHT22;5844;51.496;6.788;2022-07-23T05:07:00;15.00;99.90
11577;DHT22;5844;51.496;6.788;2022-07-23T05:09:25;15.00;99.90
11577;DHT22;5844;51.496;6.788;2022-07-23T05:11:51;15.10;99.90
11577;DHT22;5844;51.496;6.788;2022-07-23T05:14:17;15.10;99.90
11577;DHT22;5844;51.496;6.788;2022-07-23T05:16:42;15.10;99.90
11577;DHT22;5844;51.496;6.788;2022-07-23T05:19:08;15.20;99.90
11577;DHT22;5844;51.496;6.788;2022-07-23T05:21:34;15.20;99.90
11577;DHT22;5844;51.496;6.788;2022-07-23T05:23:59;15.30;99.90
11577;DHT22;5844;51.496;6.788;2022-07-23T05:26:25;15.30;99.90
11577;DHT22;5844;51.496;6.788;2022-07-23T05:28:51;15.30;99.90
11577;DHT22;5844;51.496;6.788;2022-07-23T05:31:17;15.40;99.90
11577;DHT22;5844;51.496;6.788;2022-07-23T05:33:43;15.40;99.90
11577;DHT22;5844;51.496;6.788;2022-07-23T05:36:09;15.50;99.90
11577;DHT22;5844;51.496;6.788;2022-07-23T05:38:35;15.60;99.90
11577;DHT22;5844;51.496;6.788;2022-07-23T05:41:01;15.70;99.90
11577;DHT22;5844;51.496;6.788;2022-07-23T05:43:28;15.70;99.90
11577;DHT22;5844;51.496;6.788;2022-07-23T05:45:54;15.80;99.90
11577;DHT22;5844;51.496;6.788;2022-07-23T05:48:20;15.80;99.90
11577;DHT22;5844;51.496;6.788;2022-07-23T05:50:46;15.90;99.90
11577;DHT22;5844;51.496;6.788;2022-07-23T05:53:12;16.00;99.90
11577;DHT22;5844;51.496;6.788;2022-07-23T05:55:38;16.10;99.90
11577;DHT22;5844;51.496;6.788;2022-07-23T05:58:04;16.10;99.90
11577;DHT22;5844;51.496;6.788;2022-07-23T06:00:30;16.20;99.90
11577;DHT22;5844;51.496;6.788;2022-07-23T06:02:56;16.30;99.90
11577;DHT22;5844;51.496;6.788;2022-07-23T06:05:22;16.40;99.90
11577;DHT22;5844;51.496;6.788;2022-07-23T06:07:48;16.40;99.90
11577;DHT22;5844;51.496;6.788;2022-07-23T06:10:14;16.50;99.90
11577;DHT22;5844;51.496;6.788;2022-07-23T06:12:40;16.60;99.90
11577;DHT22;5844;51.496;6.788;2022-07-23T06:15:06;16.60;99.90
11577;DHT22;5844;51.496;6.788;2022-07-23T06:17:32;16.70;99.90
11577;DHT22;5844;51.496;6.788;2022-07-23T06:19:58;16.80;99.90
11577;DHT22;5844;51.496;6.788;2022-07-23T06:22:24;16.80;99.90
11577;DHT22;5844;51.496;6.788;2022-07-23T06:24:50;17.00;99.90
11577;DHT22;5844;51.496;6.788;2022-07-23T06:27:17;17.00;99.90
11577;DHT22;5844;51.496;6.788;2022-07-23T06:29:43;17.10;99.90
11577;DHT22;5844;51.496;6.788;2022-07-23T06:32:09;17.10;99.90
11577;DHT22;5844;51.496;6.788;2022-07-23T06:34:35;17.30;99.90
11577;DHT22;5844;51.496;6.788;2022-07-23T06:37:00;17.30;99.90
11577;DHT22;5844;51.496;6.788;2022-07-23T06:39:26;17.40;99.90
11577;DHT22;5844;51.496;6.788;2022-07-23T06:41:53;17.40;99.90
11577;DHT22;5844;51.496;6.788;2022-07-23T06:44:19;17.50;99.90
11577;DHT22;5844;51.496;6.788;2022-07-23T06:46:45;17.60;99.90
11577;DHT22;5844;51.496;6.788;2022-07-23T06:49:11;17.70;99.90
11577;DHT22;5844;51.496;6.788;2022-07-23T06:51:39;17.70;99.90
11577;DHT22;5844;51.496;6.788;2022-07-23T06:54:05;17.80;99.90
11577;DHT22;5844;51.496;6.788;2022-07-23T06:56:31;17.80;99.90
11577;DHT22;5844;51.496;6.788;2022-07-23T06:58:56;17.80;99.90
11577;DHT22;5844;51.496;6.788;2022-07-23T07:01:22;17.90;99.90
11577;DHT22;5844;51.496;6.788;2022-07-23T07:03:48;18.00;99.90
11577;DHT22;5844;51.496;6.788;2022-07-23T07:06:14;17.90;99.90
11577;DHT22;5844;51.496;6.788;2022-07-23T07:08:40;18.00;99.90
11577;DHT22;5844;51.496;6.788;2022-07-23T07:11:05;18.10;99.90
11577;DHT22;5844;51.496;6.788;2022-07-23T07:13:31;18.20;99.90
11577;DHT22;5844;51.496;6.788;2022-07-23T07:15:57;18.20;99.90
11577;DHT22;5844;51.496;6.788;2022-07-23T07:18:22;18.30;99.90
11577;DHT22;5844;51.496;6.788;2022-07-23T07:20:48;18.40;99.90
11577;DHT22;5844;51.496;6.788;2022-07-23T07:23:14;18.40;99.90
11577;DHT22;5844;51.496;6.788;2022-07-23T07:25:40;18.50;99.90
11577;DHT22;5844;51.496;6.788;2022-07-23T07:28:06;18.60;99.90
11577;DHT22;5844;51.496;6.788;2022-07-23T07:30:31;18.70;99.90
11577;DHT22;5844;51.496;6.788;2022-07-23T07:32:57;18.70;99.90
11577;DHT22;5844;51.496;6.788;2022-07-23T07:35:23;18.80;99.90
11577;DHT22;5844;51.496;6.788;2022-07-23T07:37:48;18.90;99.90
11577;DHT22;5844;51.496;6.788;2022-07-23T07:40:14;19.00;99.90
11577;DHT22;5844;51.496;6.788;2022-07-23T07:42:51;19.10;98.50
11577;DHT22;5844;51.496;6.788;2022-07-23T07:45:19;19.10;99.90
11577;DHT22;5844;51.496;6.788;2022-07-23T07:47:45;19.20;84.80
11577;DHT22;5844;51.496;6.788;2022-07-23T07:50:10;19.30;94.80
11577;DHT22;5844;51.496;6.788;2022-07-23T07:52:36;19.30;68.10
11577;DHT22;5844;51.496;6.788;2022-07-23T07:55:06;19.40;59.80
11577;DHT22;5844;51.496;6.788;2022-07-23T07:57:33;19.30;72.60
11577;DHT22;5844;51.496;6.788;2022-07-23T07:59:59;19.40;44.30
11577;DHT22;5844;51.496;6.788;2022-07-23T08:02:25;19.50;25.00
11577;DHT22;5844;51.496;6.788;2022-07-23T08:04:52;19.50;1.50
11577;DHT22;5844;51.496;6.788;2022-07-23T08:07:18;19.50;22.50
11577;DHT22;5844;51.496;6.788;2022-07-23T08:09:44;19.60;32.80
11577;DHT22;5844;51.496;6.788;2022-07-23T08:12:09;19.70;14.60
11577;DHT22;5844;51.496;6.788;2022-07-23T08:14:35;19.90;8.10
11577;DHT22;5844;51.496;6.788;2022-07-23T08:17:00;19.90;22.00
11577;DHT22;5844;51.496;6.788;2022-07-23T08:19:26;20.10;2.50
11577;DHT22;5844;51.496;6.788;2022-07-23T08:21:52;20.20;5.00
11577;DHT22;5844;51.496;6.788;2022-07-23T08:24:17;20.20;11.20
11577;DHT22;5844;51.496;6.788;2022-07-23T08:26:43;20.20;1.00
11577;DHT22;5844;51.496;6.788;2022-07-23T08:29:09;20.30;1.00
11577;DHT22;5844;51.496;6.788;2022-07-23T08:31:35;20.40;1.00
11577;DHT22;5844;51.496;6.788;2022-07-23T08:34:00;20.40;1.00
11577;DHT22;5844;51.496;6.788;2022-07-23T08:36:28;20.50;1.00
11577;DHT22;5844;51.496;6.788;2022-07-23T08:38:54;20.50;1.00
11577;DHT22;5844;51.496;6.788;2022-07-23T08:41:20;20.70;1.00
11577;DHT22;5844;51.496;6.788;2022-07-23T08:43:46;20.80;99.90
11577;DHT22;5844;51.496;6.788;2022-07-23T08:46:13;20.90;99.90
11577;DHT22;5844;51.496;6.788;2022-07-23T08:48:39;21.00;1.00
11577;DHT22;5844;51.496;6.788;2022-07-23T08:51:06;21.10;88.60
11577;DHT22;5844;51.496;6.788;2022-07-23T08:53:33;21.10;99.90
11577;DHT22;5844;51.496;6.788;2022-07-23T08:56:02;21.00;1.00
11577;DHT22;5844;51.496;6.788;2022-07-23T08:58:29;21.00;99.90
11577;DHT22;5844;51.496;6.788;2022-07-23T09:00:55;21.10;99.90
11577;DHT22;5844;51.496;6.788;2022-07-23T09:03:30;21.20;99.90
11577;DHT22;5844;51.496;6.788;2022-07-23T09:05:58;21.40;1.00
11577;DHT22;5844;51.496;6.788;2022-07-23T09:08:38;21.50;99.90
11577;DHT22;5844;51.496;6.788;2022-07-23T09:11:05;21.70;1.00
11577;DHT22;5844;51.496;6.788;2022-07-23T09:18:32;22.30;1.00
11577;DHT22;5844;51.496;6.788;2022-07-23T09:21:13;22.50;1.00
11577;DHT22;5844;51.496;6.788;2022-07-23T09:23:40;22.70;99.90
11577;DHT22;5844;51.496;6.788;2022-07-23T09:26:37;22.90;1.00
11577;DHT22;5844;51.496;6.788;2022-07-23T09:34:28;23.30;99.90
11577;DHT22;5844;51.496;6.788;2022-07-23T09:36:56;23.90;1.00
11577;DHT22;5844;51.496;6.788;2022-07-23T09:39:27;24.80;1.00
11577;DHT22;5844;51.496;6.788;2022-07-23T09:41:53;25.10;1.00
11577;DHT22;5844;51.496;6.788;2022-07-23T09:44:20;25.80;1.00
11577;DHT22;5844;51.496;6.788;2022-07-23T09:46:50;26.30;99.90
11577;DHT22;5844;51.496;6.788;2022-07-23T09:56:48;27.80;1.00
11577;DHT22;5844;51.496;6.788;2022-07-23T09:59:16;27.90;99.90
11577;DHT22;5844;51.496;6.788;2022-07-23T10:01:45;28.20;1.00
11577;DHT22;5844;51.496;6.788;2022-07-23T10:04:12;27.80;1.00
11577;DHT22;5844;51.496;6.788;2022-07-23T10:06:39;27.40;43.30
11577;DHT22;5844;51.496;6.788;2022-07-23T10:09:07;27.90;1.00
11577;DHT22;5844;51.496;6.788;2022-07-23T10:11:34;28.10;99.90
11577;DHT22;5844;51.496;6.788;2022-07-23T10:14:00;28.80;99.90
11577;DHT22;5844;51.496;6.788;2022-07-23T10:16:29;29.10;99.90
11577;DHT22;5844;51.496;6.788;2022-07-23T10:18:55;29.40;1.00
11577;DHT22;5844;51.496;6.788;2022-07-23T10:24:16;29.60;1.00
11577;DHT22;5844;51.496;6.788;2022-07-23T10:27:05;28.70;1.00
11577;DHT22;5844;51.496;6.788;2022-07-23T10:37:53;29.70;99.90
11577;DHT22;5844;51.496;6.788;2022-07-23T10:40:22;30.40;99.90
11577;DHT22;5844;51.496;6.788;2022-07-23T10:42:50;30.70;99.90
11577;DHT22;5844;51.496;6.788;2022-07-23T10:45:32;30.90;1.00
11577;DHT22;5844;51.496;6.788;2022-07-23T10:48:16;31.20;1.00
11577;DHT22;5844;51.496;6.788;2022-07-23T10:50:43;31.50;99.90
11577;DHT22;5844;51.496;6.788;2022-07-23T10:53:16;31.70;1.00
11577;DHT22;5844;51.496;6.788;2022-07-23T10:55:46;31.70;99.90
11577;DHT22;5844;51.496;6.788;2022-07-23T10:58:19;32.10;1.00
11577;DHT22;5844;51.496;6.788;2022-07-23T11:00:44;31.70;99.90
11577;DHT22;5844;51.496;6.788;2022-07-23T11:03:55;31.90;99.90
11577;DHT22;5844;51.496;6.788;2022-07-23T11:06:21;32.30;1.00
11577;DHT22;5844;51.496;6.788;2022-07-23T11:08:47;32.00;1.00
11577;DHT22;5844;51.496;6.788;2022-07-23T11:11:32;32.30;1.00
11577;DHT22;5844;51.496;6.788;2022-07-23T11:13:58;33.10;67.60
11577;DHT22;5844;51.496;6.788;2022-07-23T11:16:25;32.60;1.00
11577;DHT22;5844;51.496;6.788;2022-07-23T11:18:56;31.60;1.00
11577;DHT22;5844;51.496;6.788;2022-07-23T11:29:39;32.50;1.00
11577;DHT22;5844;51.496;6.788;2022-07-23T11:32:22;32.40;1.00
11577;DHT22;5844;51.496;6.788;2022-07-23T11:34:50;33.10;1.00
11577;DHT22;5844;51.496;6.788;2022-07-23T11:39:56;32.90;1.00
11577;DHT22;5844;51.496;6.788;2022-07-23T11:42:22;33.50;1.00
11577;DHT22;5844;51.496;6.788;2022-07-23T11:44:48;33.90;1.00
11577;DHT22;5844;51.496;6.788;2022-07-23T11:47:14;34.20;1.00
11577;DHT22;5844;51.496;6.788;2022-07-23T11:49:55;34.50;1.00
11577;DHT22;5844;51.496;6.788;2022-07-23T11:52:22;33.70;1.00
11577;DHT22;5844;51.496;6.788;2022-07-23T11:54:53;32.90;99.90
11577;DHT22;5844;51.496;6.788;2022-07-23T11:57:21;32.90;1.00
11577;DHT22;5844;51.496;6.788;2022-07-23T11:59:52;33.60;1.00
11577;DHT22;5844;51.496;6.788;2022-07-23T12:02:20;34.00;67.80
11577;DHT22;5844;51.496;6.788;2022-07-23T12:04:49;34.60;1.00
11577;DHT22;5844;51.496;6.788;2022-07-23T12:07:36;35.10;1.00
11577;DHT22;5844;51.496;6.788;2022-07-23T12:10:12;35.40;1.00
11577;DHT22;5844;51.496;6.788;2022-07-23T12:12:50;35.70;99.90
11577;DHT22;5844;51.496;6.788;2022-07-23T12:15:19;35.20;99.90
11577;DHT22;5844;51.496;6.788;2022-07-23T12:17:47;34.00;99.90
11577;DHT22;5844;51.496;6.788;2022-07-23T12:20:15;33.80;99.90
11577;DHT22;5844;51.496;6.788;2022-07-23T12:22:47;33.80;99.90
11577;DHT22;5844;51.496;6.788;2022-07-23T12:25:15;34.60;99.90
11577;DHT22;5844;51.496;6.788;2022-07-23T12:27:42;35.30;99.90
11577;DHT22;5844;51.496;6.788;2022-07-23T12:30:26;35.30;99.90
11577;DHT22;5844;51.496;6.788;2022-07-23T12:32:55;35.20;99.90
11577;DHT22;5844;51.496;6.788;2022-07-23T12:35:29;35.10;99.90
11577;DHT22;5844;51.496;6.788;2022-07-23T12:38:03;34.30;99.90
11577;DHT22;5844;51.496;6.788;2022-07-23T12:40:32;34.50;99.90
11577;DHT22;5844;51.496;6.788;2022-07-23T12:43:04;34.40;1.00
11577;DHT22;5844;51.496;6.788;2022-07-23T12:45:46;34.60;99.90
11577;DHT22;5844;51.496;6.788;2022-07-23T12:53:24;34.70;99.90
11577;DHT22;5844;51.496;6.788;2022-07-23T12:56:12;34.50;99.90
11577;DHT22;5844;51.496;6.788;2022-07-23T12:58:49;35.30;99.90
11577;DHT22;5844;51.496;6.788;2022-07-23T13:04:04;36.90;1.00
11577;DHT22;5844;51.496;6.788;2022-07-23T13:06:35;36.70;1.00
11577;DHT22;5844;51.496;6.788;2022-07-23T13:09:03;35.80;1.00
11577;DHT22;5844;51.496;6.788;2022-07-23T13:11:29;35.60;1.00
11577;DHT22;5844;51.496;6.788;2022-07-23T13:13:55;35.90;1.00
11577;DHT22;5844;51.496;6.788;2022-07-23T13:16:20;35.40;1.00
11577;DHT22;5844;51.496;6.788;2022-07-23T13:18:46;34.20;99.90
11577;DHT22;5844;51.496;6.788;2022-07-23T13:21:12;34.90;1.00
11577;DHT22;5844;51.496;6.788;2022-07-23T13:23:37;34.80;1.00
11577;DHT22;5844;51.496;6.788;2022-07-23T13:26:04;34.90;1.00
11577;DHT22;5844;51.496;6.788;2022-07-23T13:28:30;35.50;1.00
11577;DHT22;5844;51.496;6.788;2022-07-23T13:30:56;35.50;1.00
11577;DHT22;5844;51.496;6.788;2022-07-23T13:33:24;35.70;1.00
11577;DHT22;5844;51.496;6.788;2022-07-23T13:35:50;36.00;1.00
11577;DHT22;5844;51.496;6.788;2022-07-23T13:38:17;35.70;1.00
11577;DHT22;5844;51.496;6.788;2022-07-23T13:40:44;36.10;1.00
11577;DHT22;5844;51.496;6.788;2022-07-23T13:43:12;36.30;1.00
11577;DHT22;5844;51.496;6.788;2022-07-23T13:45:38;36.40;1.00
11577;DHT22;5844;51.496;6.788;2022-07-23T13:48:06;36.40;6.20
11577;DHT22;5844;51.496;6.788;2022-07-23T13:50:33;37.10;99.90
11577;DHT22;5844;51.496;6.788;2022-07-23T13:53:01;37.20;47.40
11577;DHT22;5844;51.496;6.788;2022-07-23T13:55:27;37.20;99.90
11577;DHT22;5844;51.496;6.788;2022-07-23T13:57:53;36.70;99.90
11577;DHT22;5844;51.496;6.788;2022-07-23T14:00:19;37.00;99.90
11577;DHT22;5844;51.496;6.788;2022-07-23T14:02:44;37.80;1.00
11577;DHT22;5844;51.496;6.788;2022-07-23T14:05:10;38.90;1.00
11577;DHT22;5844;51.496;6.788;2022-07-23T14:07:37;39.60;1.00
11577;DHT22;5844;51.496;6.788;2022-07-23T14:10:04;40.10;99.90
11577;DHT22;5844;51.496;6.788;2022-07-23T14:12:30;39.40;39.70
11577;DHT22;5844;51.496;6.788;2022-07-23T14:14:56;38.20;1.00
11577;DHT22;5844;51.496;6.788;2022-07-23T14:17:22;39.10;51.00
11577;DHT22;5844;51.496;6.788;2022-07-23T14:19:48;40.00;8.10
11577;DHT22;5844;51.496;6.788;2022-07-23T14:22:14;40.20;99.90
11577;DHT22;5844;51.496;6.788;2022-07-23T14:24:39;39.50;1.00
11577;DHT22;5844;51.496;6.788;2022-07-23T14:27:05;39.70;99.90
11577;DHT22;5844;51.496;6.788;2022-07-23T14:29:31;39.50;99.90
11577;DHT22;5844;51.496;6.788;2022-07-23T14:31:58;39.00;99.90
11577;DHT22;5844;51.496;6.788;2022-07-23T14:34:24;39.30;99.90
11577;DHT22;5844;51.496;6.788;2022-07-23T14:36:50;39.60;99.90
11577;DHT22;5844;51.496;6.788;2022-07-23T14:39:16;39.70;99.90
11577;DHT22;5844;51.496;6.788;2022-07-23T14:41:42;39.10;1.00
11577;DHT22;5844;51.496;6.788;2022-07-23T14:44:08;37.50;49.10
11577;DHT22;5844;51.496;6.788;2022-07-23T14:46:33;35.60;1.00
11577;DHT22;5844;51.496;6.788;2022-07-23T14:48:59;35.70;53.40
11577;DHT22;5844;51.496;6.788;2022-07-23T14:51:25;36.60;99.90
11577;DHT22;5844;51.496;6.788;2022-07-23T14:53:50;37.60;99.90
11577;DHT22;5844;51.496;6.788;2022-07-23T14:56:16;37.80;99.90
11577;DHT22;5844;51.496;6.788;2022-07-23T14:58:42;38.30;99.90
11577;DHT22;5844;51.496;6.788;2022-07-23T15:01:08;38.60;99.90
11577;DHT22;5844;51.496;6.788;2022-07-23T15:03:34;38.90;99.90
11577;DHT22;5844;51.496;6.788;2022-07-23T15:06:00;38.70;99.90
11577;DHT22;5844;51.496;6.788;2022-07-23T15:08:25;38.50;1.00
11577;DHT22;5844;51.496;6.788;2022-07-23T15:10:51;39.00;99.90
11577;DHT22;5844;51.496;6.788;2022-07-23T15:13:17;39.80;99.90
11577;DHT22;5844;51.496;6.788;2022-07-23T15:15:43;39.10;99.90
11577;DHT22;5844;51.496;6.788;2022-07-23T15:18:09;39.30;87.90
11577;DHT22;5844;51.496;6.788;2022-07-23T15:20:35;39.50;1.00
11577;DHT22;5844;51.496;6.788;2022-07-23T15:23:02;38.60;99.90
11577;DHT22;5844;51.496;6.788;2022-07-23T15:25:28;37.80;99.90
11577;DHT22;5844;51.496;6.788;2022-07-23T15:27:54;37.60;1.00
11577;DHT22;5844;51.496;6.788;2022-07-23T15:30:20;37.20;1.00
11577;DHT22;5844;51.496;6.788;2022-07-23T15:32:45;37.70;99.90
11577;DHT22;5844;51.496;6.788;2022-07-23T15:35:11;38.60;99.90
11577;DHT22;5844;51.496;6.788;2022-07-23T15:37:36;39.50;99.90
11577;DHT22;5844;51.496;6.788;2022-07-23T15:40:02;39.40;99.90
11577;DHT22;5844;51.496;6.788;2022-07-23T15:42:31;38.90;99.90
11577;DHT22;5844;51.496;6.788;2022-07-23T15:44:58;38.40;99.90
11577;DHT22;5844;51.496;6.788;2022-07-23T15:47:23;39.10;99.90
11577;DHT22;5844;51.496;6.788;2022-07-23T15:49:49;39.70;99.90
11577;DHT22;5844;51.496;6.788;2022-07-23T15:52:15;40.10;99.90
11577;DHT22;5844;51.496;6.788;2022-07-23T15:54:41;40.00;90.30
11577;DHT22;5844;51.496;6.788;2022-07-23T15:57:08;38.90;1.00
11577;DHT22;5844;51.496;6.788;2022-07-23T15:59:33;38.10;1.00
11577;DHT22;5844;51.496;6.788;2022-07-23T16:01:59;37.40;99.90
11577;DHT22;5844;51.496;6.788;2022-07-23T16:04:25;36.60;99.90
11577;DHT22;5844;51.496;6.788;2022-07-23T16:06:51;36.30;1.00
11577;DHT22;5844;51.496;6.788;2022-07-23T16:09:17;36.30;99.90
11577;DHT22;5844;51.496;6.788;2022-07-23T16:11:43;36.50;99.90
11577;DHT22;5844;51.496;6.788;2022-07-23T16:14:09;37.00;99.90
11577;DHT22;5844;51.496;6.788;2022-07-23T16:16:35;37.30;1.00
11577;DHT22;5844;51.496;6.788;2022-07-23T16:19:00;37.30;99.90
11577;DHT22;5844;51.496;6.788;2022-07-23T16:21:26;37.70;99.90
11577;DHT22;5844;51.496;6.788;2022-07-23T16:23:53;37.80;99.90
11577;DHT22;5844;51.496;6.788;2022-07-23T16:26:19;37.90;99.90
11577;DHT22;5844;51.496;6.788;2022-07-23T16:28:46;37.50;99.90
11577;DHT22;5844;51.496;6.788;2022-07-23T16:31:12;37.70;99.90
11577;DHT22;5844;51.496;6.788;2022-07-23T16:33:38;38.10;99.90
11577;DHT22;5844;51.496;6.788;2022-07-23T16:36:05;38.40;99.90